Time;durP1;ratioP1;P1;durP2;ratioP2;P2;SDS_P1;SDS_P2;PMS_P1;PMS_P2;Temp;Humidity;BMP_temperature;BMP_pressure;BME280_temperature;BME280_humidity;BME280_pressure;Samples;Min_cycle;Max_cycle;Signal;HPM_P1;HPM_P2
2022/04/26 03:36:46;;;;;;;16.87;9.00;;;8.00;99.90;;;;;;5016686;28;20231;-77
2022/04/26 03:39:30;;;;;;;13.37;8.90;;;8.00;99.90;;;;;;5015492;28;20235;-77
2022/04/26 03:42:15;;;;;;;16.33;9.20;;;8.00;99.90;;;;;;5015327;28;20192;-77
2022/04/26 03:45:00;;;;;;;12.57;8.77;;;8.00;99.90;;;;;;5016058;28;20268;-77
2022/04/26 03:47:44;;;;;;;18.13;10.17;;;8.00;99.90;;;;;;5014130;28;20188;-76
2022/04/26 03:50:29;;;;;;;15.47;10.23;;;8.00;99.90;;;;;;5014292;28;20628;-77
2022/04/26 03:53:13;;;;;;;16.13;9.70;;;7.90;99.90;;;;;;5020971;28;20185;-78
2022/04/26 03:55:58;;;;;;;13.80;9.73;;;7.90;99.90;;;;;;5015643;28;20231;-78
2022/04/26 03:58:43;;;;;;;16.50;9.63;;;7.90;99.90;;;;;;5015914;28;20223;-76
2022/04/26 04:01:30;;;;;;;14.67;9.40;;;7.90;99.90;;;;;;5014333;28;20274;-78
2022/04/26 04:04:20;;;;;;;19.00;10.40;;;8.00;99.90;;;;;;5009402;28;20211;-76
2022/04/26 04:07:13;;;;;;;16.30;11.03;;;7.90;99.90;;;;;;5028196;28;20759;-76
2022/04/26 04:09:58;;;;;;;15.53;9.87;;;7.90;99.90;;;;;;5014185;28;20227;-77
2022/04/26 04:12:48;;;;;;;13.97;10.37;;;7.90;99.90;;;;;;5015499;28;20228;-76
2022/04/26 04:15:33;;;;;;;14.03;10.07;;;7.90;99.90;;;;;;5008391;28;20200;-76
2022/04/26 04:21:21;;;;;;;19.03;10.40;;;8.00;99.90;;;;;;5014857;28;20243;-77
2022/04/26 04:24:05;;;;;;;16.17;9.80;;;8.00;99.90;;;;;;5013529;28;20188;-76
2022/04/26 04:26:50;;;;;;;13.20;9.47;;;7.90;99.90;;;;;;5012293;28;20267;-76
2022/04/26 04:29:34;;;;;;;17.40;10.60;;;7.90;99.90;;;;;;5011346;28;20208;-76
2022/04/26 04:32:17;;;;;;;22.87;10.50;;;7.90;99.90;;;;;;5012107;28;20239;-75
2022/04/26 04:35:02;;;;;;;15.40;9.30;;;7.90;99.90;;;;;;5009981;28;20246;-76
2022/04/26 04:37:47;;;;;;;15.70;9.73;;;7.90;99.90;;;;;;5010391;28;20216;-76
2022/04/26 04:40:31;;;;;;;15.20;8.73;;;7.90;99.90;;;;;;5011346;28;20204;-76
2022/04/26 04:43:15;;;;;;;17.20;8.77;;;8.00;99.90;;;;;;5011082;28;20180;-76
2022/04/26 04:46:00;;;;;;;15.50;8.37;;;8.00;99.90;;;;;;5011190;28;20255;-76
2022/04/26 04:48:45;;;;;;;15.70;8.27;;;8.00;99.90;;;;;;5011572;28;20293;-76
2022/04/26 04:51:29;;;;;;;12.60;8.10;;;8.00;99.90;;;;;;5010543;28;20211;-77
2022/04/26 04:54:14;;;;;;;14.63;7.30;;;7.90;99.90;;;;;;5008717;28;20311;-75
2022/04/26 04:56:58;;;;;;;11.40;7.37;;;8.00;99.90;;;;;;5014295;28;20195;-77
2022/04/26 04:59:43;;;;;;;11.20;7.50;;;7.90;99.90;;;;;;5009449;28;20220;-76
2022/04/26 05:02:27;;;;;;;12.13;7.40;;;7.90;99.90;;;;;;5009467;28;20227;-77
2022/04/26 05:05:12;;;;;;;10.60;7.50;;;7.90;99.90;;;;;;5023374;28;20195;-78
2022/04/26 05:07:58;;;;;;;14.60;7.40;;;7.90;99.90;;;;;;5013960;28;20259;-76
2022/04/26 05:10:42;;;;;;;14.10;7.10;;;8.00;99.90;;;;;;5013845;28;20227;-81
2022/04/26 05:13:27;;;;;;;16.07;8.87;;;8.00;99.90;;;;;;5014251;28;20207;-76
2022/04/26 05:16:11;;;;;;;12.13;8.00;;;8.00;99.90;;;;;;5014886;28;20227;-76
2022/04/26 05:18:55;;;;;;;11.90;7.73;;;8.00;99.90;;;;;;5011418;28;20659;-77
2022/04/26 05:21:39;;;;;;;13.23;8.47;;;8.00;99.90;;;;;;5014401;28;20194;-77
2022/04/26 05:27:29;;;;;;;13.10;7.97;;;8.00;99.90;;;;;;5011963;28;20292;-77
2022/04/26 05:30:14;;;;;;;11.63;7.20;;;8.00;99.90;;;;;;5012833;28;20211;-77
2022/04/26 05:32:58;;;;;;;16.67;7.57;;;8.10;99.90;;;;;;5012383;28;20251;-76
2022/04/26 05:35:42;;;;;;;15.23;8.43;;;8.10;99.90;;;;;;5010956;28;20195;-77
2022/04/26 05:38:26;;;;;;;11.77;8.37;;;8.10;99.90;;;;;;5013780;28;20196;-76
2022/04/26 05:41:13;;;;;;;14.97;7.97;;;8.10;99.90;;;;;;5011303;28;20216;-76
2022/04/26 05:43:57;;;;;;;12.23;8.33;;;8.20;99.90;;;;;;5012061;28;20212;-77
2022/04/26 05:46:41;;;;;;;13.93;8.63;;;8.20;99.90;;;;;;5012525;28;20263;-76
2022/04/26 05:49:25;;;;;;;18.60;8.40;;;8.20;99.90;;;;;;5013969;28;20235;-76
2022/04/26 05:52:09;;;;;;;13.07;7.90;;;8.30;99.90;;;;;;5012210;28;20176;-76
2022/04/26 05:54:53;;;;;;;9.80;7.30;;;8.30;99.90;;;;;;5012974;28;20263;-76
2022/04/26 05:57:38;;;;;;;13.00;8.13;;;8.30;99.90;;;;;;5013520;28;20654;-77
2022/04/26 06:00:23;;;;;;;14.23;8.97;;;8.30;99.90;;;;;;5012727;28;20223;-76
2022/04/26 06:03:07;;;;;;;13.43;7.90;;;8.40;99.90;;;;;;5012764;28;20597;-76
2022/04/26 06:05:55;;;;;;;13.43;8.60;;;8.40;99.90;;;;;;5008864;28;20262;-76
2022/04/26 06:08:39;;;;;;;16.23;8.87;;;8.40;99.90;;;;;;5012503;28;20187;-76
2022/04/26 06:11:24;;;;;;;12.50;8.40;;;8.40;99.90;;;;;;5011026;28;20286;-76
2022/04/26 06:14:08;;;;;;;14.50;8.73;;;8.40;99.90;;;;;;5012561;28;20188;-76
2022/04/26 06:16:53;;;;;;;16.27;9.27;;;8.50;99.90;;;;;;5009135;28;20224;-75
2022/04/26 06:19:37;;;;;;;12.77;8.27;;;8.50;99.90;;;;;;5011791;28;20266;-76
2022/04/26 06:22:21;;;;;;;15.30;8.60;;;8.50;99.90;;;;;;5012276;28;20172;-76
2022/04/26 06:25:06;;;;;;;14.73;8.37;;;8.50;99.90;;;;;;5025913;28;20188;-77
2022/04/26 06:27:50;;;;;;;13.93;8.73;;;8.50;99.90;;;;;;5010834;28;20208;-76
2022/04/26 06:30:37;;;;;;;13.83;8.50;;;8.60;99.90;;;;;;5009230;28;20211;-76
2022/04/26 06:33:21;;;;;;;11.57;7.53;;;8.60;99.90;;;;;;5011986;28;20184;-76
2022/04/26 06:36:06;;;;;;;11.80;7.50;;;8.60;99.90;;;;;;5013727;28;20180;-76
2022/04/26 06:38:50;;;;;;;17.30;8.20;;;8.60;99.90;;;;;;5011812;28;20184;-76
2022/04/26 06:41:34;;;;;;;11.73;7.67;;;8.70;99.90;;;;;;5012049;28;20232;-76
2022/04/26 06:44:18;;;;;;;13.93;7.77;;;8.70;99.90;;;;;;5006248;28;20180;-76
2022/04/26 06:47:03;;;;;;;14.17;7.40;;;8.80;99.90;;;;;;5010823;28;20216;-77
2022/04/26 06:49:48;;;;;;;9.90;7.57;;;8.90;99.90;;;;;;5012049;28;20286;-77
2022/04/26 06:52:32;;;;;;;10.93;7.20;;;9.00;99.90;;;;;;5021654;28;20184;-76
2022/04/26 06:55:17;;;;;;;8.60;6.27;;;9.00;99.90;;;;;;5011372;28;20211;-77
2022/04/26 06:58:02;;;;;;;9.57;6.63;;;9.00;99.90;;;;;;5017339;28;20234;-77
2022/04/26 07:00:49;;;;;;;10.27;6.93;;;9.10;99.90;;;;;;5009673;28;20216;-76
2022/04/26 07:03:34;;;;;;;9.07;7.30;;;9.20;99.90;;;;;;5016186;28;20183;-77
2022/04/26 07:06:18;;;;;;;10.67;5.57;;;9.30;99.90;;;;;;5008437;28;20211;-77
2022/04/26 07:09:03;;;;;;;8.93;5.90;;;9.30;99.90;;;;;;5010481;28;20183;-76
2022/04/26 07:11:47;;;;;;;6.90;5.53;;;9.50;99.90;;;;;;5012863;28;20182;-76
2022/04/26 07:14:31;;;;;;;8.27;5.80;;;9.70;99.90;;;;;;5021341;28;20191;-76
2022/04/26 07:17:17;;;;;;;7.23;5.47;;;9.80;99.90;;;;;;5011654;28;20196;-76
2022/04/26 07:20:01;;;;;;;9.70;5.97;;;9.90;99.90;;;;;;5009956;28;20228;-76
2022/04/26 07:22:47;;;;;;;8.23;4.63;;;10.10;99.90;;;;;;5009331;28;20304;-76
2022/04/26 07:25:32;;;;;;;8.03;5.03;;;10.20;99.90;;;;;;5008062;28;20239;-76
2022/04/26 07:28:17;;;;;;;7.47;5.17;;;10.40;99.90;;;;;;5009193;28;20268;-77
2022/04/26 07:31:01;;;;;;;9.10;5.73;;;10.40;99.90;;;;;;5008526;28;20439;-76
2022/04/26 07:36:50;;;;;;;11.30;5.53;;;10.50;99.90;;;;;;5007048;28;20260;-76
2022/04/26 07:39:35;;;;;;;11.13;6.13;;;10.50;99.90;;;;;;5010969;28;20219;-76
2022/04/26 07:42:19;;;;;;;8.50;6.30;;;10.60;99.90;;;;;;5001370;28;20199;-76
2022/04/26 07:45:04;;;;;;;6.70;5.77;;;10.60;99.90;;;;;;5010939;28;20196;-76
2022/04/26 07:47:48;;;;;;;9.30;6.10;;;10.60;99.90;;;;;;5011537;28;20180;-77
2022/04/26 07:50:33;;;;;;;9.50;6.03;;;10.60;99.90;;;;;;5012858;28;20258;-76
2022/04/26 07:53:18;;;;;;;8.50;6.37;;;10.60;99.90;;;;;;5010134;28;20175;-76
2022/04/26 07:56:02;;;;;;;7.00;5.70;;;10.70;99.90;;;;;;5012756;28;20276;-77
2022/04/26 07:58:46;;;;;;;16.83;6.33;;;10.70;99.90;;;;;;5010985;28;20675;-76
2022/04/26 08:01:31;;;;;;;9.90;6.30;;;10.70;99.90;;;;;;5012090;28;20723;-77
2022/04/26 08:04:15;;;;;;;12.27;6.07;;;10.80;99.90;;;;;;5012333;28;20203;-76
2022/04/26 08:06:59;;;;;;;9.03;5.53;;;10.80;99.90;;;;;;5013151;28;20263;-77
2022/04/26 08:09:44;;;;;;;8.80;5.60;;;10.80;99.90;;;;;;5012711;28;20363;-77
2022/04/26 08:12:28;;;;;;;9.23;6.13;;;10.80;99.90;;;;;;5010974;28;20257;-77
2022/04/26 08:15:13;;;;;;;12.87;7.47;;;10.80;99.90;;;;;;5010888;28;20251;-77
2022/04/26 08:17:58;;;;;;;13.93;7.40;;;10.90;99.90;;;;;;5025552;28;20257;-77
2022/04/26 08:20:44;;;;;;;10.07;6.40;;;10.90;99.90;;;;;;5023802;28;20212;-75
2022/04/26 08:23:30;;;;;;;12.77;6.20;;;11.00;99.90;;;;;;5019476;28;20176;-75
2022/04/26 08:29:19;;;;;;;8.37;5.40;;;11.00;99.90;;;;;;5014228;28;20195;-77
2022/04/26 08:32:03;;;;;;;11.77;5.70;;;11.10;99.90;;;;;;5013681;28;20251;-77
2022/04/26 08:34:48;;;;;;;10.97;5.97;;;11.10;99.90;;;;;;5015255;28;20184;-76
2022/04/26 08:37:36;;;;;;;10.93;5.93;;;11.20;99.90;;;;;;5017099;28;20204;-77
2022/04/26 08:40:20;;;;;;;7.73;5.90;;;11.20;99.90;;;;;;5020900;28;20267;-76
2022/04/26 08:43:05;;;;;;;8.33;5.30;;;11.30;99.90;;;;;;5020207;28;20199;-77
2022/04/26 08:45:49;;;;;;;6.80;5.00;;;11.40;99.90;;;;;;5020198;28;20215;-77
2022/04/26 08:51:37;;;;;;;8.07;5.30;;;11.60;99.90;;;;;;5021731;28;20262;-77
2022/04/26 08:54:22;;;;;;;7.33;5.20;;;11.60;99.90;;;;;;5023212;28;20184;-77
2022/04/26 08:57:08;;;;;;;7.27;5.30;;;11.70;99.90;;;;;;5016968;28;20196;-76
2022/04/26 08:59:53;;;;;;;11.50;5.40;;;11.90;99.90;;;;;;5012638;28;20307;-77
2022/04/26 09:02:39;;;;;;;6.47;5.27;;;11.90;99.90;;;;;;5018972;28;20212;-78
2022/04/26 09:05:24;;;;;;;8.37;5.33;;;12.00;99.90;;;;;;5013184;28;20278;-76
2022/04/26 09:08:21;;;;;;;7.40;5.40;;;12.10;99.90;;;;;;5014536;28;20188;-76
2022/04/26 09:11:22;;;;;;;9.93;5.50;;;12.20;99.90;;;;;;5026653;28;20231;-76
2022/04/26 09:14:11;;;;;;;8.37;4.93;;;12.30;99.90;;;;;;5019525;28;20214;-76
2022/04/26 09:17:07;;;;;;;8.93;5.30;;;12.30;99.90;;;;;;5011854;28;20270;-76
2022/04/26 09:19:55;;;;;;;10.20;5.27;;;12.30;99.90;;;;;;5015786;28;20732;-76
2022/04/26 09:22:39;;;;;;;6.80;4.70;;;12.40;99.90;;;;;;5010914;28;20250;-76
2022/04/26 09:25:24;;;;;;;9.37;6.00;;;12.40;99.90;;;;;;5010008;28;20671;-75
2022/04/26 09:28:09;;;;;;;9.23;5.23;;;12.40;99.90;;;;;;5015255;28;20740;-75
2022/04/26 09:30:54;;;;;;;8.33;5.40;;;12.30;99.90;;;;;;5009340;28;20267;-76
2022/04/26 09:33:44;;;;;;;7.90;5.43;;;12.40;99.90;;;;;;5022032;28;20913;-76
2022/04/26 09:36:35;;;;;;;9.20;5.03;;;12.40;99.90;;;;;;5010165;28;20196;-76
2022/04/26 09:39:21;;;;;;;7.50;5.27;;;12.50;99.90;;;;;;5007936;28;20276;-76
2022/04/26 09:42:06;;;;;;;7.93;5.43;;;12.60;99.90;;;;;;5008617;28;20191;-76
2022/04/26 09:45:10;;;;;;;6.53;5.30;;;12.70;99.90;;;;;;5007613;28;20192;-76
2022/04/26 09:47:58;;;;;;;6.47;4.80;;;12.70;99.90;;;;;;5010927;28;20211;-76
2022/04/26 09:50:42;;;;;;;7.40;5.37;;;12.80;99.90;;;;;;5012398;28;20208;-76
2022/04/26 09:53:26;;;;;;;8.40;5.70;;;12.80;99.90;;;;;;5013757;28;20184;-76
2022/04/26 09:56:13;;;;;;;5.10;4.47;;;12.80;99.90;;;;;;5009068;28;20216;-75
2022/04/26 09:58:59;;;;;;;10.63;5.10;;;12.90;99.90;;;;;;5023352;28;20200;-76
2022/04/26 10:01:49;;;;;;;5.63;4.50;;;13.00;99.90;;;;;;5015187;28;20718;-76
2022/04/26 10:04:37;;;;;;;7.80;6.03;;;13.10;99.90;;;;;;4996136;28;20188;-75
2022/04/26 10:07:23;;;;;;;7.00;4.97;;;13.10;99.90;;;;;;5015104;28;20247;-76
2022/04/26 10:10:09;;;;;;;6.43;5.03;;;13.20;99.90;;;;;;5024031;28;20267;-76
2022/04/26 10:16:16;;;;;;;10.07;5.87;;;13.30;99.90;;;;;;5010120;28;20199;-76
2022/04/26 10:19:09;;;;;;;7.30;4.90;;;13.50;99.90;;;;;;5008245;28;20195;-76
2022/04/26 10:21:54;;;;;;;8.90;5.63;;;13.50;99.90;;;;;;5021235;28;20195;-76
2022/04/26 10:24:41;;;;;;;5.73;4.53;;;13.60;99.90;;;;;;5006737;28;20199;-77
2022/04/26 10:27:25;;;;;;;5.53;4.93;;;13.60;99.90;;;;;;5022096;28;20369;-76
2022/04/26 10:30:09;;;;;;;6.73;5.23;;;13.60;99.90;;;;;;5007649;28;20215;-76
2022/04/26 10:32:54;;;;;;;5.93;4.37;;;13.60;99.90;;;;;;5023255;28;20212;-76
2022/04/26 10:35:38;;;;;;;9.17;5.27;;;13.70;99.90;;;;;;5008725;28;20203;-76
2022/04/26 10:38:23;;;;;;;5.53;4.50;;;13.70;99.90;;;;;;5014771;28;20200;-76
2022/04/26 10:41:08;;;;;;;8.90;5.53;;;13.80;99.90;;;;;;5006629;28;20212;-76
2022/04/26 10:44:21;;;;;;;10.43;5.60;;;13.80;99.90;;;;;;5020811;28;20227;-75
2022/04/26 10:47:06;;;;;;;6.17;4.93;;;13.90;99.90;;;;;;5011777;28;20263;-76
2022/04/26 10:49:52;;;;;;;8.97;5.37;;;13.90;99.90;;;;;;5015607;28;20231;-76
2022/04/26 10:52:40;;;;;;;7.07;5.17;;;13.90;99.90;;;;;;5008658;28;20246;-76
2022/04/26 10:55:26;;;;;;;6.77;5.30;;;14.00;99.90;;;;;;5013006;28;20220;-76
2022/04/26 10:58:11;;;;;;;6.97;5.23;;;14.00;99.90;;;;;;5007192;28;20216;-76
2022/04/26 11:00:58;;;;;;;6.63;5.27;;;14.00;99.90;;;;;;5008385;28;20223;-76
2022/04/26 11:03:54;;;;;;;6.57;5.60;;;14.10;99.90;;;;;;5013027;28;20195;-76
2022/04/26 11:06:42;;;;;;;9.90;5.53;;;14.10;99.90;;;;;;5020894;28;20337;-77
2022/04/26 11:09:27;;;;;;;7.93;6.03;;;14.20;99.90;;;;;;5005213;28;20734;-76
2022/04/26 11:12:11;;;;;;;8.60;5.93;;;14.30;99.90;;;;;;5001999;28;20279;-77
2022/04/26 11:15:02;;;;;;;7.00;5.27;;;14.40;99.90;;;;;;5005397;28;20203;-77
2022/04/26 11:17:47;;;;;;;8.67;5.73;;;14.50;99.90;;;;;;5017465;28;20220;-76
2022/04/26 11:20:35;;;;;;;6.03;5.43;;;14.50;99.90;;;;;;5021064;28;20250;-76
2022/04/26 11:29:52;;;;;;;7.57;6.40;;;14.60;99.90;;;;;;5005498;28;20224;-76
2022/04/26 11:32:42;;;;;;;9.03;6.13;;;14.50;99.90;;;;;;5004817;28;20288;-77
2022/04/26 11:35:28;;;;;;;10.33;5.97;;;14.60;99.90;;;;;;5002559;28;20731;-76
2022/04/26 11:38:15;;;;;;;9.23;5.80;;;14.70;99.90;;;;;;5005987;28;20311;-77
2022/04/26 11:41:03;;;;;;;7.03;5.10;;;14.80;99.90;;;;;;5005797;28;20302;-75
2022/04/26 11:43:48;;;;;;;8.03;5.20;;;14.80;99.90;;;;;;5018556;28;20191;-75
2022/04/26 11:46:32;;;;;;;7.43;5.50;;;14.90;99.90;;;;;;5005514;28;20224;-75
2022/04/26 11:49:16;;;;;;;8.13;5.30;;;14.90;99.90;;;;;;5004759;28;20184;-76
2022/04/26 11:52:01;;;;;;;7.83;5.67;;;14.90;99.90;;;;;;5006441;28;20226;-75
2022/04/26 11:54:46;;;;;;;6.33;5.30;;;15.00;99.90;;;;;;5004005;28;20195;-75
2022/04/26 11:57:31;;;;;;;6.73;5.60;;;15.00;99.90;;;;;;5003611;28;20223;-76
2022/04/26 12:00:17;;;;;;;6.63;5.20;;;15.00;99.90;;;;;;5003576;28;20203;-76
2022/04/26 12:03:03;;;;;;;8.07;6.00;;;15.10;99.90;;;;;;5010816;28;20451;-76
2022/04/26 12:06:03;;;;;;;9.93;5.67;;;15.20;99.90;;;;;;5003835;28;20193;-75
2022/04/26 12:08:53;;;;;;;6.63;5.67;;;15.30;99.90;;;;;;5019939;28;20569;-75
2022/04/26 12:11:41;;;;;;;9.73;5.70;;;15.30;99.90;;;;;;5011435;28;20196;-75
2022/04/26 12:14:25;;;;;;;10.20;6.07;;;15.30;99.90;;;;;;5004530;28;20201;-75
2022/04/26 12:17:29;;;;;;;9.10;6.40;;;15.20;99.90;;;;;;5006259;28;20246;-75
2022/04/26 12:20:15;;;;;;;7.50;5.53;;;15.20;99.90;;;;;;5019604;28;20215;-75
2022/04/26 12:23:00;;;;;;;7.73;5.80;;;15.10;99.90;;;;;;5007911;28;20211;-75
2022/04/26 12:26:00;;;;;;;7.97;5.80;;;15.10;99.90;;;;;;5005803;28;20291;-75
2022/04/26 12:28:50;;;;;;;6.93;5.73;;;15.10;99.90;;;;;;5003676;28;20194;-75
2022/04/26 12:31:44;;;;;;;7.73;5.57;;;15.10;99.90;;;;;;5018539;28;20754;-75
2022/04/26 12:34:32;;;;;;;10.40;5.87;;;15.20;99.90;;;;;;5019316;28;20192;-75
2022/04/26 12:37:16;;;;;;;10.60;5.97;;;15.20;99.90;;;;;;5003756;28;20231;-75
2022/04/26 12:40:11;;;;;;;6.80;5.47;;;15.20;99.90;;;;;;5010365;28;20274;-75
2022/04/26 12:42:57;;;;;;;7.60;5.23;;;15.20;99.90;;;;;;5018569;28;20290;-75
2022/04/26 12:45:55;;;;;;;8.83;5.73;;;15.30;99.90;;;;;;5002028;28;20200;-75
2022/04/26 12:52:06;;;;;;;8.20;5.57;;;15.20;99.90;;;;;;5007020;28;20200;-76
2022/04/26 12:54:55;;;;;;;8.17;6.00;;;15.20;99.90;;;;;;5002433;28;20254;-75
2022/04/26 12:57:47;;;;;;;9.70;6.53;;;15.10;99.90;;;;;;5019679;28;20659;-75
2022/04/26 13:00:32;;;;;;;8.13;5.80;;;15.10;99.90;;;;;;5004438;28;20230;-75
2022/04/26 13:03:19;;;;;;;7.43;6.00;;;15.00;99.90;;;;;;5007218;28;20275;-75
2022/04/26 13:06:17;;;;;;;9.00;5.87;;;15.10;99.90;;;;;;5009874;28;20347;-75
2022/04/26 13:09:02;;;;;;;7.07;6.27;;;15.10;99.90;;;;;;5010125;28;20261;-75
2022/04/26 13:11:48;;;;;;;11.07;5.57;;;15.10;99.90;;;;;;5007635;28;20659;-75
2022/04/26 13:14:33;;;;;;;11.10;6.40;;;15.20;99.90;;;;;;5002310;28;20203;-75
2022/04/26 13:17:20;;;;;;;9.33;6.87;;;15.30;99.90;;;;;;5004219;28;20282;-75
2022/04/26 13:20:06;;;;;;;7.93;6.03;;;15.40;99.90;;;;;;5007584;28;20220;-75
2022/04/26 13:22:51;;;;;;;7.67;6.10;;;15.40;99.90;;;;;;5007665;28;20199;-75
2022/04/26 13:25:35;;;;;;;7.63;6.70;;;15.40;99.90;;;;;;5007813;28;20224;-76
2022/04/26 13:28:19;;;;;;;7.10;6.23;;;15.50;99.90;;;;;;5005718;28;20192;-75
2022/04/26 13:31:03;;;;;;;10.90;6.93;;;15.40;99.90;;;;;;5006288;28;20262;-76
2022/04/26 13:33:48;;;;;;;8.53;5.80;;;15.50;99.90;;;;;;5006705;28;20264;-75
2022/04/26 13:36:34;;;;;;;8.67;7.03;;;15.40;99.90;;;;;;5006739;28;20204;-75
2022/04/26 13:39:18;;;;;;;9.00;6.93;;;15.40;99.90;;;;;;5005567;28;20204;-75
2022/04/26 13:42:05;;;;;;;7.53;6.80;;;15.40;99.90;;;;;;5007174;28;20419;-75
2022/04/26 13:44:52;;;;;;;9.53;6.90;;;15.40;99.90;;;;;;5009708;28;20180;-76
2022/04/26 13:47:40;;;;;;;8.87;7.23;;;15.40;99.90;;;;;;5006328;28;20220;-76
2022/04/26 13:50:25;;;;;;;11.33;7.40;;;15.30;99.90;;;;;;5002589;28;20679;-75
2022/04/26 13:53:09;;;;;;;8.23;7.27;;;15.30;99.90;;;;;;5004237;28;20196;-75
2022/04/26 13:55:54;;;;;;;9.60;6.80;;;15.30;99.90;;;;;;5005930;28;20195;-75
2022/04/26 13:58:38;;;;;;;9.57;7.50;;;15.30;99.90;;;;;;5010687;28;20196;-76
2022/04/26 14:01:23;;;;;;;8.50;7.60;;;15.40;99.90;;;;;;5017018;28;20223;-75
2022/04/26 14:04:07;;;;;;;12.67;7.80;;;15.40;99.90;;;;;;5005681;28;20211;-75
2022/04/26 14:06:51;;;;;;;9.53;6.90;;;15.40;99.90;;;;;;5003634;28;20225;-75
2022/04/26 14:09:35;;;;;;;12.80;7.67;;;15.50;99.90;;;;;;5005730;28;20263;-75
2022/04/26 14:12:20;;;;;;;7.70;6.67;;;15.40;99.90;;;;;;5002407;28;20188;-76
2022/04/26 14:24:15;;;;;;;8.33;6.70;;;15.60;99.90;;;;;;5014222;28;20260;-74
2022/04/26 14:26:59;;;;;;;8.63;5.70;;;15.60;99.90;;;;;;5011662;28;20223;-75
2022/04/26 14:29:44;;;;;;;10.73;6.63;;;15.50;99.90;;;;;;5013320;28;20287;-76
2022/04/26 14:32:28;;;;;;;8.10;5.90;;;15.50;99.90;;;;;;5013441;28;20305;-76
2022/04/26 14:35:13;;;;;;;7.60;6.17;;;15.60;99.90;;;;;;5010731;28;20543;-76
2022/04/26 14:37:58;;;;;;;8.97;6.27;;;15.70;99.90;;;;;;5015226;28;20184;-76
2022/04/26 14:40:42;;;;;;;9.13;5.87;;;15.70;99.90;;;;;;5014912;28;20207;-75
2022/04/26 14:43:27;;;;;;;8.20;5.70;;;15.70;99.90;;;;;;5013160;28;20188;-76
2022/04/26 14:46:11;;;;;;;8.30;5.73;;;15.70;99.90;;;;;;5012673;28;20223;-76
2022/04/26 14:48:55;;;;;;;7.33;5.30;;;15.60;99.90;;;;;;5011317;28;20239;-76
2022/04/26 14:51:39;;;;;;;20.10;6.20;;;15.50;99.90;;;;;;5011892;28;20208;-76
2022/04/26 14:54:23;;;;;;;13.47;5.87;;;15.50;99.90;;;;;;5008985;28;20209;-76
2022/04/26 14:57:08;;;;;;;7.03;5.43;;;15.40;99.90;;;;;;5006581;28;20207;-76
2022/04/26 14:59:52;;;;;;;7.37;5.70;;;15.30;99.90;;;;;;5013160;28;20740;-76
2022/04/26 15:02:38;;;;;;;9.57;5.63;;;15.30;99.90;;;;;;5014722;28;20227;-76
2022/04/26 15:05:23;;;;;;;7.67;6.13;;;15.30;99.90;;;;;;5011170;28;20199;-76
2022/04/26 15:11:10;;;;;;;9.00;6.03;;;15.20;99.90;;;;;;5012818;28;20223;-75
2022/04/26 15:16:58;;;;;;;8.17;6.40;;;15.20;99.90;;;;;;5009833;28;20238;-76
2022/04/26 15:19:43;;;;;;;10.77;6.20;;;15.20;99.90;;;;;;5011223;28;20744;-76
2022/04/26 15:22:27;;;;;;;10.97;7.00;;;15.20;99.90;;;;;;5010417;28;20172;-76
2022/04/26 15:25:11;;;;;;;10.07;6.57;;;15.20;99.90;;;;;;5012032;28;20671;-76
2022/04/26 15:28:03;;;;;;;10.73;6.37;;;15.30;99.90;;;;;;5013209;28;20271;-76
2022/04/26 15:30:51;;;;;;;12.03;6.53;;;15.30;99.90;;;;;;5012323;28;20216;-76
2022/04/26 15:33:35;;;;;;;11.47;5.93;;;15.30;99.90;;;;;;5007959;28;20186;-76
2022/04/26 15:36:20;;;;;;;9.93;6.40;;;15.30;99.90;;;;;;5011061;28;20250;-76
2022/04/26 15:39:05;;;;;;;7.13;6.23;;;15.30;99.90;;;;;;5022122;28;20238;-75
2022/04/26 15:41:49;;;;;;;9.30;6.83;;;15.20;99.90;;;;;;5011478;28;20204;-75
2022/04/26 15:44:34;;;;;;;9.57;6.63;;;15.10;99.90;;;;;;5011927;28;20578;-75
2022/04/26 15:47:18;;;;;;;10.93;6.97;;;15.20;99.90;;;;;;5011950;28;20215;-75
2022/04/26 15:50:05;;;;;;;12.87;6.73;;;15.20;99.90;;;;;;5019657;28;20286;-76
2022/04/26 15:52:50;;;;;;;8.73;6.57;;;15.30;99.90;;;;;;5012674;28;20183;-76
2022/04/26 15:55:35;;;;;;;11.47;6.83;;;15.20;99.90;;;;;;5013751;28;20172;-75
2022/04/26 15:58:19;;;;;;;12.37;6.73;;;15.30;99.90;;;;;;5011993;28;20227;-75
2022/04/26 16:01:03;;;;;;;10.50;7.75;;;15.20;99.90;;;;;;5008892;28;20416;-75
2022/04/26 16:03:48;;;;;;;7.93;6.77;;;15.10;99.90;;;;;;5011872;28;20243;-76
2022/04/26 16:06:37;;;;;;;10.20;7.13;;;15.00;99.90;;;;;;5011627;28;20216;-75
2022/04/26 16:21:36;;;;;;;9.37;6.23;;;15.00;99.90;;;;;;5013144;28;20219;-76
2022/04/26 16:24:21;;;;;;;7.50;6.43;;;15.00;99.90;;;;;;5018840;28;20211;-75
2022/04/26 16:27:06;;;;;;;10.27;6.23;;;14.80;99.90;;;;;;5012229;28;20219;-75
2022/04/26 16:29:50;;;;;;;7.83;6.33;;;14.80;99.90;;;;;;5008589;28;20247;-75
2022/04/26 16:32:35;;;;;;;9.10;6.43;;;14.80;99.90;;;;;;5008874;28;20187;-76
2022/04/26 16:35:19;;;;;;;11.27;5.97;;;14.80;99.90;;;;;;5010762;28;20201;-75
2022/04/26 16:38:03;;;;;;;7.40;6.10;;;14.80;99.90;;;;;;5010817;28;20227;-76
2022/04/26 16:40:49;;;;;;;10.00;6.53;;;14.70;99.90;;;;;;5008487;28;20224;-76
2022/04/26 16:43:34;;;;;;;11.52;7.05;;;14.70;99.90;;;;;;5010420;28;20407;-75
2022/04/26 16:46:19;;;;;;;9.53;6.97;;;14.70;99.90;;;;;;5011909;28;20248;-75
2022/04/26 16:49:04;;;;;;;10.50;6.50;;;14.60;99.90;;;;;;5012400;28;20192;-75
2022/04/26 16:51:49;;;;;;;9.80;6.53;;;14.60;99.90;;;;;;5014130;28;20180;-76
2022/04/26 16:54:33;;;;;;;10.80;6.17;;;14.60;99.90;;;;;;5013351;28;20193;-75
2022/04/26 16:57:17;;;;;;;7.00;6.30;;;14.60;99.90;;;;;;5012587;28;20196;-76
2022/04/26 17:00:03;;;;;;;7.83;5.80;;;14.60;99.90;;;;;;5011610;28;20495;-76
2022/04/26 17:02:48;;;;;;;8.93;6.00;;;14.60;99.90;;;;;;5011206;28;20207;-76
2022/04/26 17:05:33;;;;;;;11.60;6.30;;;14.50;99.90;;;;;;5023964;28;20259;-76
2022/04/26 17:08:18;;;;;;;9.17;5.77;;;14.50;99.90;;;;;;5012406;28;20316;-76
2022/04/26 17:14:07;;;;;;;7.47;5.27;;;14.60;99.90;;;;;;5013803;28;20312;-77
2022/04/26 17:16:51;;;;;;;7.83;5.00;;;14.60;99.90;;;;;;5013737;28;20187;-76
2022/04/26 17:19:36;;;;;;;8.30;5.03;;;14.50;99.90;;;;;;5016862;28;20778;-76
2022/04/26 17:22:20;;;;;;;6.80;4.90;;;14.50;99.90;;;;;;5012493;28;20204;-76
2022/04/26 17:25:14;;;;;;;5.63;4.47;;;14.40;99.90;;;;;;5014219;28;20305;-76
2022/04/26 17:27:59;;;;;;;8.30;4.50;;;14.40;99.90;;;;;;5018907;28;20272;-76
2022/04/26 17:30:43;;;;;;;9.03;3.47;;;14.30;99.90;;;;;;5013231;28;20255;-76
2022/04/26 17:33:27;;;;;;;7.50;3.60;;;14.30;99.90;;;;;;5013696;28;20246;-78
2022/04/26 17:36:12;;;;;;;6.53;3.93;;;14.20;99.90;;;;;;5014080;28;20204;-76
2022/04/26 17:38:57;;;;;;;7.53;3.60;;;14.00;99.90;;;;;;5013581;28;20300;-76
2022/04/26 17:41:42;;;;;;;9.33;3.20;;;13.80;99.90;;;;;;5013673;28;20247;-76
2022/04/26 17:44:27;;;;;;;8.47;3.37;;;13.60;99.90;;;;;;5012841;28;20270;-75
2022/04/26 17:47:11;;;;;;;4.77;3.40;;;13.40;99.90;;;;;;5014569;28;20687;-76
2022/04/26 17:49:58;;;;;;;4.50;3.40;;;13.20;99.90;;;;;;5010721;28;20270;-76
2022/04/26 17:58:49;;;;;;;8.20;3.40;;;13.00;99.90;;;;;;5013488;28;20188;-76
2022/04/26 18:01:36;;;;;;;6.63;3.33;;;12.80;99.90;;;;;;5014512;28;20227;-76
2022/04/26 18:04:21;;;;;;;6.63;3.87;;;12.80;99.90;;;;;;5011098;28;20204;-76
2022/04/26 18:07:05;;;;;;;7.70;4.17;;;12.70;99.90;;;;;;5013100;28;20216;-76
2022/04/26 18:09:50;;;;;;;6.70;3.20;;;12.60;99.90;;;;;;5025256;28;20726;-76
2022/04/26 18:12:37;;;;;;;6.87;3.20;;;12.40;99.90;;;;;;5012053;28;20172;-75
2022/04/26 18:15:21;;;;;;;5.30;3.10;;;12.30;99.90;;;;;;5009750;28;20246;-76
2022/04/26 18:18:06;;;;;;;7.33;3.50;;;12.30;99.90;;;;;;5012868;28;20239;-76
2022/04/26 18:20:51;;;;;;;6.50;3.47;;;12.30;99.90;;;;;;5021166;28;20216;-75
2022/04/26 18:23:37;;;;;;;7.67;3.47;;;12.20;99.90;;;;;;5012579;28;20215;-76
2022/04/26 18:26:23;;;;;;;3.97;3.27;;;12.20;99.90;;;;;;5011792;28;20573;-76
2022/04/26 18:29:08;;;;;;;6.60;3.33;;;12.10;99.90;;;;;;5009315;28;20250;-77
2022/04/26 18:31:53;;;;;;;9.37;3.50;;;12.00;99.90;;;;;;5014570;28;20280;-76
2022/04/26 18:34:37;;;;;;;6.90;3.57;;;12.00;99.90;;;;;;5012079;28;20239;-77
2022/04/26 18:37:22;;;;;;;5.97;3.70;;;11.90;99.90;;;;;;5014168;28;20239;-76
2022/04/26 18:40:06;;;;;;;7.27;3.50;;;11.80;99.90;;;;;;5012723;28;20227;-76
2022/04/26 18:42:51;;;;;;;7.37;3.20;;;11.80;99.90;;;;;;5012568;28;20259;-77
2022/04/26 18:45:35;;;;;;;6.67;3.07;;;11.80;99.90;;;;;;5019998;28;20379;-77
2022/04/26 18:48:19;;;;;;;6.53;3.30;;;11.70;99.90;;;;;;5013415;28;20216;-76
2022/04/26 18:51:05;;;;;;;6.57;3.00;;;11.60;99.90;;;;;;5020422;28;20235;-76
2022/04/26 18:53:49;;;;;;;7.77;3.23;;;11.50;99.90;;;;;;5014354;28;20720;-76
2022/04/26 18:56:33;;;;;;;6.23;3.10;;;11.50;99.90;;;;;;5028989;28;20184;-76
2022/04/26 18:59:21;;;;;;;4.93;2.80;;;11.50;99.90;;;;;;5015680;28;20184;-76
2022/04/26 19:02:06;;;;;;;5.70;2.90;;;11.50;99.90;;;;;;5015454;28;20229;-76